createdAt,value
2019-01-16T00:02:38.536Z,100167.16
2019-01-16T00:05:29.492Z,100175.06
2019-01-16T00:08:20.755Z,100170.72
2019-01-16T00:11:24.985Z,100157.62
2019-01-16T00:14:14.393Z,100161.41
2019-01-16T00:16:55.451Z,100157.46
2019-01-16T00:19:49.135Z,100166.20
2019-01-16T00:22:38.164Z,100147.80
2019-01-16T00:25:31.635Z,100138.64
2019-01-16T00:28:20.994Z,100145.70
2019-01-16T00:31:20.547Z,100140.89
2019-01-16T00:34:09.671Z,100124.77
2019-01-16T00:37:04.762Z,100113.41
2019-01-16T00:39:58.062Z,100125.04
2019-01-16T00:42:51.927Z,100126.35
2019-01-16T00:45:43.025Z,100128.37
2019-01-16T00:48:30.104Z,100115.31
2019-01-16T00:51:26.698Z,100119.38
2019-01-16T00:54:23.547Z,100116.02
2019-01-16T00:57:09.048Z,100107.66
2019-01-16T00:59:59.734Z,100108.77
2019-01-16T01:02:50.485Z,100114.72
2019-01-16T01:05:40.562Z,100118.34
2019-01-16T01:08:44.208Z,100112.25
2019-01-16T01:11:40.708Z,100106.30
2019-01-16T01:14:23.047Z,100109.78
2019-01-16T01:17:18.088Z,100122.45
2019-01-16T01:20:08.381Z,100106.00
2019-01-16T01:22:49.772Z,100113.20
2019-01-16T01:25:35.356Z,100106.80
2019-01-16T01:28:32.210Z,100114.15
2019-01-16T01:31:16.569Z,100107.22
2019-01-16T01:34:07.283Z,100109.12
2019-01-16T01:37:08.124Z,100112.33
2019-01-16T01:39:53.304Z,100107.31
2019-01-16T01:42:44.076Z,100100.20
2019-01-16T01:45:39.918Z,100111.53
2019-01-16T01:48:42.540Z,100100.84
2019-01-16T01:51:36.195Z,100095.83
2019-01-16T01:54:16.263Z,100100.31
2019-01-16T01:57:05.630Z,100103.88
2019-01-16T01:59:49.649Z,100103.32
2019-01-16T02:02:39.074Z,100107.22
2019-01-16T02:05:19.827Z,100097.93
2019-01-16T02:08:09.337Z,100097.84
2019-01-16T02:10:58.528Z,100086.45
2019-01-16T02:13:47.748Z,100097.76
2019-01-16T02:16:44.264Z,100096.53
2019-01-16T02:19:33.701Z,100100.30
2019-01-16T02:22:24.110Z,100105.84
2019-01-16T02:25:06.394Z,100096.45
2019-01-16T02:27:45.233Z,100098.14
2019-01-16T02:30:39.272Z,100104.30
2019-01-16T02:33:38.904Z,100105.28
2019-01-16T02:36:31.298Z,100096.53
2019-01-16T02:39:22.801Z,100093.20
2019-01-16T02:42:22.709Z,100091.08
2019-01-16T02:45:11.953Z,100090.38
2019-01-16T02:48:01.446Z,100087.08
2019-01-16T02:50:40.717Z,100073.69
2019-01-16T02:53:31.890Z,100065.21
2019-01-16T02:56:21.489Z,100046.59
2019-01-16T02:59:24.205Z,100075.97
2019-01-16T03:02:11.481Z,100069.20
2019-01-16T03:05:00.918Z,100069.55
2019-01-16T03:07:40.185Z,100059.73
2019-01-16T03:10:22.409Z,100060.91
2019-01-16T03:13:01.203Z,100054.53
2019-01-16T03:16:09.765Z,100052.03
2019-01-16T03:19:04.521Z,100045.99
2019-01-16T03:22:01.727Z,100056.82
2019-01-16T03:24:50.865Z,100045.28
2019-01-16T03:27:53.343Z,100035.31
2019-01-16T03:30:49.962Z,100038.97
2019-01-16T03:33:34.073Z,100030.02
2019-01-16T03:36:20.110Z,100030.89
2019-01-16T03:39:00.154Z,100032.79
2019-01-16T03:41:56.881Z,100025.74
2019-01-16T03:44:39.185Z,100032.25
2019-01-16T03:47:29.523Z,100029.28
2019-01-16T03:50:23.093Z,100024.55
2019-01-16T03:53:22.979Z,100019.97
2019-01-16T03:56:11.170Z,100010.66
2019-01-16T03:59:01.921Z,100017.38
2019-01-16T04:01:51.124Z,100012.29
2019-01-16T04:04:29.530Z,100012.70
2019-01-16T04:07:14.096Z,100012.05
2019-01-16T04:10:03.225Z,100017.42
2019-01-16T04:12:52.553Z,100006.30
2019-01-16T04:15:40.015Z,100003.41
2019-01-16T04:18:28.341Z,99993.70
2019-01-16T04:21:18.892Z,99992.11
2019-01-16T04:24:09.600Z,99992.41
2019-01-16T04:26:58.458Z,99997.48
2019-01-16T04:29:47.630Z,99987.86
2019-01-16T04:32:27.702Z,99971.58
2019-01-16T04:35:15.728Z,99972.89
2019-01-16T04:38:18.636Z,99953.86
2019-01-16T04:41:15.277Z,99957.17
2019-01-16T04:44:20.975Z,99951.73
2019-01-16T04:47:10.341Z,99947.03
2019-01-16T04:49:59.511Z,99946.20
2019-01-16T04:52:49.518Z,99937.70
2019-01-16T04:55:58.351Z,99942.58
2019-01-16T04:58:49.948Z,99942.37
2019-01-16T05:01:35.139Z,99938.39
2019-01-16T05:04:37.726Z,99935.74
2019-01-16T05:07:26.848Z,99927.27
2019-01-16T05:10:16.015Z,99931.02
2019-01-16T05:13:15.281Z,99941.92
2019-01-16T05:16:06.061Z,99929.72
2019-01-16T05:18:59.554Z,99927.13
2019-01-16T05:21:43.957Z,99927.75
2019-01-16T05:24:34.671Z,99923.41
2019-01-16T05:27:25.561Z,99914.50
2019-01-16T05:30:40.681Z,99922.84
2019-01-16T05:34:04.842Z,99909.17
2019-01-16T05:37:22.017Z,99911.84
2019-01-16T05:40:20.448Z,99898.36
2019-01-16T05:43:27.502Z,99897.47
2019-01-16T05:46:42.423Z,99900.88
2019-01-16T05:49:53.666Z,99883.58
2019-01-16T05:53:11.558Z,99890.50
2019-01-16T05:56:26.653Z,99896.16
2019-01-16T05:59:27.367Z,99885.63
2019-01-16T06:02:32.463Z,99886.05
2019-01-16T06:05:39.671Z,99884.77
2019-01-16T06:08:44.605Z,99874.06
2019-01-16T06:11:52.591Z,99876.03
2019-01-16T06:14:53.884Z,99869.69
2019-01-16T06:17:57.184Z,99860.41
2019-01-16T06:20:58.547Z,99870.84
2019-01-16T06:24:11.107Z,99875.12
2019-01-16T06:27:16.062Z,99881.60
2019-01-16T06:30:37.095Z,99861.85
2019-01-16T06:34:04.365Z,99865.33
2019-01-16T06:37:12.922Z,99871.87
2019-01-16T06:40:40.113Z,99871.08
2019-01-16T06:43:49.064Z,99861.19
2019-01-16T06:46:48.175Z,99858.44
2019-01-16T06:49:47.995Z,99862.97
2019-01-16T06:52:52.319Z,99858.09
2019-01-16T06:55:59.944Z,99855.25
2019-01-16T06:59:07.751Z,99847.11
2019-01-16T07:02:19.779Z,99840.16
2019-01-16T07:05:20.429Z,99826.47
2019-01-16T07:08:28.146Z,99847.94
2019-01-16T07:11:25.903Z,99842.68
2019-01-16T07:14:43.639Z,99837.60
2019-01-16T07:17:48.151Z,99835.24
2019-01-16T07:20:56.293Z,99834.55
2019-01-16T07:24:05.643Z,99830.91
2019-01-16T07:27:17.059Z,99817.47
2019-01-16T07:30:31.311Z,99815.74
2019-01-16T07:33:46.100Z,99818.33
2019-01-16T07:36:55.497Z,99828.61
2019-01-16T07:40:04.672Z,99824.11
2019-01-16T07:43:13.438Z,99815.63
2019-01-16T07:46:22.521Z,99827.68
2019-01-16T07:49:22.405Z,99842.91
2019-01-16T07:52:24.125Z,99833.05
2019-01-16T07:55:25.469Z,99836.65
2019-01-16T07:58:37.521Z,99834.13
2019-01-16T08:01:44.351Z,99827.88
2019-01-16T08:04:59.070Z,99844.88
2019-01-16T08:08:04.990Z,99855.41
2019-01-16T08:11:11.987Z,99845.55
2019-01-16T08:14:19.612Z,99838.23
2019-01-16T08:17:41.259Z,99844.20
2019-01-16T08:20:48.555Z,99847.21
2019-01-16T08:24:15.716Z,99844.50
2019-01-16T08:27:27.541Z,99871.20
2019-01-16T08:30:36.342Z,99846.38
2019-01-16T08:33:43.939Z,99854.96
2019-01-16T08:37:00.003Z,99865.94
2019-01-16T08:40:08.573Z,99862.72
2019-01-16T08:43:17.059Z,99857.90
2019-01-16T08:46:19.924Z,99865.17
2019-01-16T08:49:28.316Z,99883.55
2019-01-16T08:52:36.110Z,99872.67
2019-01-16T08:55:56.917Z,99856.69
2019-01-16T08:59:04.810Z,99848.96
2019-01-16T09:02:06.848Z,99856.94
2019-01-16T09:05:12.006Z,99849.13
2019-01-16T09:08:21.434Z,99854.20
2019-01-16T09:11:45.778Z,99864.59
2019-01-16T09:14:52.737Z,99842.64
2019-01-16T09:18:12.140Z,99831.29
2019-01-16T09:21:11.856Z,99823.79
2019-01-16T09:24:23.467Z,99820.98
2019-01-16T09:27:41.250Z,99828.89
2019-01-16T09:30:56.368Z,99809.68
2019-01-16T09:34:05.322Z,99804.99
2019-01-16T09:37:20.506Z,99835.50
2019-01-16T09:40:31.072Z,99806.02
2019-01-16T09:43:38.633Z,99804.48
2019-01-16T09:46:44.656Z,99805.44
2019-01-16T09:49:51.858Z,99771.05
2019-01-16T09:52:52.816Z,99799.45
2019-01-16T09:56:16.978Z,99797.63
2019-01-16T09:59:27.615Z,99815.14
2019-01-16T10:02:50.098Z,99797.70
2019-01-16T10:05:58.792Z,99783.62
2019-01-16T10:09:06.415Z,99781.46
2019-01-16T10:12:10.646Z,99775.23
2019-01-16T10:15:23.032Z,99771.89
2019-01-16T10:18:31.144Z,99771.13
2019-01-16T10:21:43.209Z,99766.38
2019-01-16T10:24:49.153Z,99761.61
2019-01-16T10:28:13.631Z,99772.63
2019-01-16T10:31:28.318Z,99764.20
2019-01-16T10:34:35.421Z,99761.48
2019-01-16T10:37:44.382Z,99765.72
2019-01-16T10:40:52.195Z,99759.50
2019-01-16T10:44:04.506Z,99753.69
2019-01-16T10:47:11.846Z,99748.24
2019-01-16T10:50:26.114Z,99741.02
2019-01-16T10:53:34.821Z,99748.11
2019-01-16T10:56:47.072Z,99766.88
2019-01-16T10:59:54.638Z,99739.47
2019-01-16T11:03:10.256Z,99727.70
2019-01-16T11:06:17.703Z,99717.47
2019-01-16T11:09:27.842Z,99733.16
2019-01-16T11:12:35.977Z,99718.77
2019-01-16T11:15:37.888Z,99683.11
2019-01-16T11:18:52.677Z,99730.69
2019-01-16T11:22:10.411Z,99712.55
2019-01-16T11:25:20.066Z,99713.92
2019-01-16T11:28:27.025Z,99691.88
2019-01-16T11:31:34.395Z,99687.89
2019-01-16T11:34:55.505Z,99687.70
2019-01-16T11:38:06.814Z,99685.03
2019-01-16T11:41:18.604Z,99667.31
2019-01-16T11:44:33.310Z,99676.30
2019-01-16T11:47:40.815Z,99676.28
2019-01-16T11:50:52.632Z,99671.03
2019-01-16T11:53:59.401Z,99649.44
2019-01-16T11:56:59.528Z,99641.10
2019-01-16T12:00:07.181Z,99632.09
2019-01-16T12:03:15.802Z,99645.53
2019-01-16T12:06:23.239Z,99634.55
2019-01-16T12:09:34.104Z,99646.04
2019-01-16T12:12:43.536Z,99637.69
2019-01-16T12:15:43.953Z,99625.91
2019-01-16T12:18:45.361Z,99628.97
2019-01-16T12:21:59.806Z,99631.14
2019-01-16T12:25:01.215Z,99626.70
2019-01-16T12:28:12.777Z,99621.64
2019-01-16T12:31:14.375Z,99624.50
2019-01-16T12:34:15.593Z,99611.36
2019-01-16T12:37:16.596Z,99611.80
2019-01-16T12:40:25.231Z,99594.80
2019-01-16T12:43:25.129Z,99577.02
2019-01-16T12:46:36.764Z,99583.45
2019-01-16T12:49:54.337Z,99568.55
2019-01-16T12:53:12.682Z,99564.63
2019-01-16T12:56:11.165Z,99556.92
2019-01-16T12:59:29.143Z,99560.16
2019-01-16T13:02:38.514Z,99546.30
2019-01-16T13:05:50.609Z,99527.23
2019-01-16T13:08:57.903Z,99531.75
2019-01-16T13:12:13.043Z,99508.08
2019-01-16T13:15:24.789Z,99513.61
2019-01-16T13:18:43.805Z,99519.98
2019-01-16T13:21:56.375Z,99506.23
2019-01-16T13:24:58.333Z,99525.83
2019-01-16T13:28:26.164Z,99498.75
2019-01-16T13:31:41.359Z,99485.55
2019-01-16T13:34:47.858Z,99487.69
2019-01-16T13:37:57.088Z,99480.50
2019-01-16T13:41:09.041Z,99469.55
2019-01-16T13:44:18.189Z,99474.95
2019-01-16T13:47:21.351Z,99447.57
2019-01-16T13:50:31.332Z,99461.95
2019-01-16T13:53:37.829Z,99482.52
2019-01-16T13:56:36.533Z,99466.66
2019-01-16T13:59:51.170Z,99448.29
2019-01-16T14:02:50.789Z,99436.12
2019-01-16T14:06:08.716Z,99435.80
2019-01-16T14:09:32.683Z,99417.59
2019-01-16T14:12:44.957Z,99419.60
2019-01-16T14:15:58.058Z,99424.76
2019-01-16T14:19:16.672Z,99416.28
2019-01-16T14:22:25.263Z,99402.41
2019-01-16T14:25:43.182Z,99408.70
2019-01-16T14:28:50.062Z,99398.28
2019-01-16T14:32:16.588Z,99405.67
2019-01-16T14:35:15.264Z,99369.86
2019-01-16T14:38:23.848Z,99390.32
2019-01-16T14:41:39.461Z,99373.36
2019-01-16T14:44:37.248Z,99384.13
2019-01-16T14:47:44.100Z,99379.01
2019-01-16T14:51:04.860Z,99367.72
2019-01-16T14:54:10.081Z,99376.58
2019-01-16T14:57:18.469Z,99367.50
2019-01-16T15:00:29.107Z,99378.59
2019-01-16T15:03:40.330Z,99367.50
2019-01-16T15:06:43.203Z,99358.23
2019-01-16T15:09:39.948Z,99362.50
2019-01-16T15:12:51.625Z,99353.53
2019-01-16T15:15:50.588Z,99360.06
2019-01-16T15:18:58.025Z,99352.75
2019-01-16T15:22:06.430Z,99343.26
2019-01-16T15:25:06.414Z,99339.72
2019-01-16T15:28:05.286Z,99345.09
2019-01-16T15:31:12.554Z,99341.47
2019-01-16T15:34:14.615Z,99332.80
2019-01-16T15:37:34.713Z,99335.05
2019-01-16T15:40:46.336Z,99334.94
2019-01-16T15:43:57.943Z,99331.88
2019-01-16T15:47:19.079Z,99315.30
2019-01-16T15:50:43.951Z,99322.55
2019-01-16T15:53:44.744Z,99314.18
2019-01-16T15:57:02.593Z,99304.20
2019-01-16T16:00:14.846Z,99298.83
2019-01-16T16:03:23.531Z,99289.78
2019-01-16T16:06:35.425Z,99285.39
2019-01-16T16:09:37.241Z,99278.00
2019-01-16T16:12:35.078Z,99260.22
2019-01-16T16:15:46.583Z,99257.53
2019-01-16T16:18:53.943Z,99262.74
2019-01-16T16:22:01.709Z,99245.45
2019-01-16T16:25:23.240Z,99249.67
2019-01-16T16:28:40.779Z,99241.75
2019-01-16T16:31:51.600Z,99233.79
2019-01-16T16:34:58.911Z,99233.23
2019-01-16T16:38:06.005Z,99226.44
2019-01-16T16:41:04.299Z,99218.42
2019-01-16T16:44:15.493Z,99210.85
2019-01-16T16:47:28.003Z,99207.78
2019-01-16T16:50:37.419Z,99219.38
2019-01-16T16:53:45.403Z,99205.34
2019-01-16T16:56:52.502Z,99208.87
2019-01-16T17:00:00.280Z,99205.47
2019-01-16T17:03:15.981Z,99207.78
2019-01-16T17:06:30.561Z,99208.15
2019-01-16T17:09:36.794Z,99199.60
2019-01-16T17:12:44.671Z,99199.87
2019-01-16T17:15:56.335Z,99205.55
2019-01-16T17:19:17.200Z,99198.00
2019-01-16T17:22:24.306Z,99193.77
2019-01-16T17:25:32.256Z,99190.83
2019-01-16T17:28:37.271Z,99188.41
2019-01-16T17:31:58.125Z,99183.45
2019-01-16T17:35:05.128Z,99180.52
2019-01-16T17:38:04.515Z,99184.06
2019-01-16T17:41:12.384Z,99178.42
2019-01-16T17:44:36.355Z,99164.81
2019-01-16T17:47:48.210Z,99149.92
2019-01-16T17:50:56.990Z,99158.69
2019-01-16T17:54:12.067Z,99154.37
2019-01-16T17:57:22.259Z,99160.60
2019-01-16T18:00:37.574Z,99162.48
2019-01-16T18:03:43.866Z,99155.16
2019-01-16T18:06:52.337Z,99153.54
2019-01-16T18:10:10.435Z,99145.63
2019-01-16T18:13:22.516Z,99155.09
2019-01-16T18:16:25.056Z,99133.66
2019-01-16T18:19:25.678Z,99135.25
2019-01-16T18:22:33.305Z,99132.89
2019-01-16T18:25:32.580Z,99132.84
2019-01-16T18:28:30.989Z,99123.53
2019-01-16T18:31:40.161Z,99128.16
2019-01-16T18:34:38.370Z,99121.17
2019-01-16T18:37:37.327Z,99117.37
2019-01-16T18:40:45.626Z,99114.59
2019-01-16T18:43:55.247Z,99112.88
2019-01-16T18:46:57.254Z,99119.57
2019-01-16T18:50:24.928Z,99128.84
2019-01-16T18:53:32.891Z,99114.47
2019-01-16T18:56:37.789Z,99114.39
2019-01-16T18:59:46.897Z,99122.72
2019-01-16T19:02:58.393Z,99118.22
2019-01-16T19:06:16.280Z,99112.22
2019-01-16T19:09:46.710Z,99117.00
2019-01-16T19:12:58.278Z,99106.14
2019-01-16T19:16:06.358Z,99104.17
2019-01-16T19:19:16.016Z,99103.31
2019-01-16T19:22:30.879Z,99090.66
2019-01-16T19:25:42.535Z,99100.62
2019-01-16T19:28:54.879Z,99108.70
2019-01-16T19:32:02.301Z,99091.97
2019-01-16T19:35:20.202Z,99100.17
2019-01-16T19:38:27.365Z,99095.89
2019-01-16T19:41:41.496Z,99092.42
2019-01-16T19:44:50.819Z,99070.81
2019-01-16T19:47:57.819Z,99063.34
2019-01-16T19:51:03.274Z,99079.69
2019-01-16T19:54:15.592Z,99085.48
2019-01-16T19:57:12.892Z,99050.03
2019-01-16T20:00:24.382Z,99049.95
2019-01-16T20:03:42.485Z,99048.16
2019-01-16T20:07:00.713Z,99049.84
2019-01-16T20:10:18.493Z,99045.88
2019-01-16T20:13:14.094Z,99042.73
2019-01-16T20:16:23.606Z,99045.05
2019-01-16T20:19:39.092Z,99029.79
2019-01-16T20:22:48.165Z,99036.27
2019-01-16T20:26:03.912Z,99012.88
2019-01-16T20:29:11.408Z,99021.62
2019-01-16T20:32:19.062Z,99016.80
2019-01-16T20:35:27.080Z,99019.50
2019-01-16T20:38:36.086Z,99000.11
2019-01-16T20:41:41.967Z,99017.63
2019-01-16T20:44:26.277Z,98993.28
2019-01-16T20:47:20.375Z,98985.90
2019-01-16T20:50:14.432Z,99010.77
2019-01-16T20:53:19.678Z,98985.58
2019-01-16T20:56:09.145Z,98984.69
2019-01-16T20:59:06.033Z,98990.20
2019-01-16T21:01:55.292Z,99005.67
2019-01-16T21:04:45.994Z,98985.10
2019-01-16T21:07:32.750Z,98994.52
2019-01-16T21:10:23.271Z,98983.99
2019-01-16T21:13:18.052Z,98969.87
2019-01-16T21:16:14.354Z,98973.02
2019-01-16T21:19:09.843Z,98975.25
2019-01-16T21:21:57.576Z,98971.90
2019-01-16T21:24:57.242Z,98984.96
2019-01-16T21:27:56.455Z,98957.90
2019-01-16T21:30:58.714Z,98967.50
2019-01-16T21:33:47.906Z,98973.66
2019-01-16T21:36:45.241Z,98963.73
2019-01-16T21:39:44.999Z,98973.82
2019-01-16T21:42:35.868Z,98961.45
2019-01-16T21:45:47.674Z,98942.22
2019-01-16T21:48:54.270Z,98949.42
2019-01-16T21:51:44.852Z,98943.41
2019-01-16T21:54:38.453Z,98944.25
2019-01-16T21:57:35.386Z,98935.11
2019-01-16T22:00:44.057Z,98923.94
2019-01-16T22:03:26.241Z,98924.25
2019-01-16T22:06:20.128Z,98931.80
2019-01-16T22:09:21.938Z,98932.73
2019-01-16T22:12:12.721Z,98917.75
2019-01-16T22:15:05.635Z,98901.70
2019-01-16T22:17:55.059Z,98905.34
2019-01-16T22:20:48.938Z,98913.72
2019-01-16T22:23:45.449Z,98930.70
2019-01-16T22:26:35.014Z,98921.34
2019-01-16T22:29:25.788Z,98918.05
2019-01-16T22:32:14.317Z,98927.61
2019-01-16T22:35:08.197Z,98909.20
2019-01-16T22:37:50.134Z,98894.68
2019-01-16T22:40:43.739Z,98926.66
2019-01-16T22:43:33.121Z,98917.66
2019-01-16T22:46:23.911Z,98921.56
2019-01-16T22:49:07.046Z,98910.14
2019-01-16T22:52:01.729Z,98904.31
2019-01-16T22:55:09.908Z,98912.15
2019-01-16T22:57:52.168Z,98907.96
2019-01-16T23:00:53.803Z,98904.88
2019-01-16T23:03:42.868Z,98900.64
2019-01-16T23:06:34.592Z,98902.50
2019-01-16T23:09:21.505Z,98908.66
2019-01-16T23:12:18.200Z,98910.66
2019-01-16T23:15:07.557Z,98902.36
2019-01-16T23:17:56.750Z,98896.58
2019-01-16T23:20:46.180Z,98899.99
2019-01-16T23:23:35.309Z,98902.11
2019-01-16T23:26:16.167Z,98885.81
2019-01-16T23:29:15.866Z,98891.60
2019-01-16T23:31:59.356Z,98886.72
2019-01-16T23:34:50.050Z,98886.61
2019-01-16T23:37:55.975Z,98894.44
2019-01-16T23:40:56.498Z,98880.98
2019-01-16T23:43:45.742Z,98888.56
2019-01-16T23:46:40.803Z,98885.48
2019-01-16T23:49:34.594Z,98880.42
2019-01-16T23:52:14.879Z,98887.69
2019-01-16T23:55:08.387Z,98886.27
2019-01-16T23:58:11.123Z,98884.91
